Cherry Hill, New Jersey
Current Conditions -  °F | °C
As of 3:11 AM on Monday 24 Nov 2014 (Local Time) from KVAY Reporting Station
Moderate Rain Moderate Rain  
Wind Chill: 62°   Ceiling: 1000
Heat Index: 62°   Visibility: 4mi
Dew Point: 59°   Wind: 15mph
Humidity: 90%   Direction: 160°SSE
Pressure: 29.74"   Gusts: 35mph
Location:  39.93°N, 75.03°W
Report Text: KVAY 240811Z AUTO 16013G30KT 4SM RA BR BKN010 BKN016 OVC022 17/15 A2974 RMK AO2 PK WND 15030/0811 P0007 T01670150
Loading
Personal Weather Stations






























Interactive Weather Map New forecast layout! Learn more

10-Day Weather Forecast

Advertisements
Track Severe Weather on mobile